Songa Opal — V7RO5 — position and weather

sailwx.info

Track history (hours):
 
Tides and Currents Weather Stations Pressure Air Temp Water Temp Dewpoint Dewpoint Depression Visibility Wind Speed Wind Dir Waves Ship Positions

Songa Opal

Last reported at 2016-May-06 12:17 UTC. Time now 2016-May-25 18:52 UTC.
Position S 01°17' W 048°30'.
Warning: this ship's position is 19 days out of date.

Length 148 m; draft 6.2 m.

Type: Ship. MMSI: 538003550.

Date/timePositionNaut miles runAvg speedWind from/ knotsBaromVisibWave heightAir tempDewpointWater temp
2016-May-06 12:17S 01°17' W 048°30'7 9.4
2016-May-06 11:33S 01°24' W 048°30'1 0.6
2016-May-06 10:31S 01°24' W 048°30'0 0.0
2016-May-06 09:34S 01°24' W 048°30'0 0.0
2016-May-05 00:34S 01°24' W 048°30'0 0.2
2016-May-04 23:34S 01°24' W 048°30'1010.1
2016-May-04 22:33S 01°14' W 048°29'1515.3
2016-May-04 21:33S 00°60' W 048°25'1515.5
2016-May-04 20:33S 00°46' W 048°17'1614.9
2016-May-04 19:27S 00°35' W 048°06'1415.2
2016-May-04 18:33S 00°29' W 047°53'9 6.9
2016-May-04 17:17S 00°25' W 047°45'0 0.1
2016-May-04 16:32S 00°25' W 047°45'0 0.0
2016-May-04 15:23S 00°25' W 047°45'0 0.0
2016-May-04 14:26S 00°25' W 047°45'0 0.0
2016-May-04 11:23S 00°25' W 047°46'0 0.2
2016-May-04 10:29S 00°25' W 047°46'0 0.0
2016-May-04 09:23S 00°25' W 047°46'0 0.0
2016-May-04 08:17S 00°25' W 047°46'0 0.0
2016-May-04 07:29S 00°25' W 047°46'0 0.0
2016-May-04 06:23S 00°25' W 047°46'0 0.1
2016-May-04 05:32S 00°25' W 047°45'  
Track history (hours):
 
Tides and Currents Weather Stations Pressure Air Temp Water Temp Dewpoint Dewpoint Depression Visibility Wind Speed Wind Dir Waves Ship Positions

Songa Opal

Last reported at 2016-May-06 12:17 UTC. Time now 2016-May-25 18:52 UTC.
Position S 01°17' W 048°30'.
Warning: this ship's position is 19 days out of date.

Length 148 m; draft 6.2 m.

Type: Ship. MMSI: 538003550.

Date/timePositionNaut miles runAvg speedWind from/ knotsBaromVisibWave heightAir tempDewpointWater temp
2016-May-06 12:17S 01°17' W 048°30'7 9.4
2016-May-06 11:33S 01°24' W 048°30'1 0.6
2016-May-06 10:31S 01°24' W 048°30'0 0.0
2016-May-06 09:34S 01°24' W 048°30'0 0.0
2016-May-05 00:34S 01°24' W 048°30'0 0.2
2016-May-04 23:34S 01°24' W 048°30'1010.1
2016-May-04 22:33S 01°14' W 048°29'1515.3
2016-May-04 21:33S 00°60' W 048°25'1515.5
2016-May-04 20:33S 00°46' W 048°17'1614.9
2016-May-04 19:27S 00°35' W 048°06'1415.2
2016-May-04 18:33S 00°29' W 047°53'9 6.9
2016-May-04 17:17S 00°25' W 047°45'0 0.1
2016-May-04 16:32S 00°25' W 047°45'0 0.0
2016-May-04 15:23S 00°25' W 047°45'0 0.0
2016-May-04 14:26S 00°25' W 047°45'0 0.0
2016-May-04 11:23S 00°25' W 047°46'0 0.2
2016-May-04 10:29S 00°25' W 047°46'0 0.0
2016-May-04 09:23S 00°25' W 047°46'0 0.0
2016-May-04 08:17S 00°25' W 047°46'0 0.0
2016-May-04 07:29S 00°25' W 047°46'0 0.0
2016-May-04 06:23S 00°25' W 047°46'0 0.1
2016-May-04 05:32S 00°25' W 047°45'  

Dump ship's entire track history